createdAt,value
2023-02-11T00:02:01.609Z,-6.80
2023-02-11T00:05:04.293Z,-6.70
2023-02-11T00:08:06.504Z,-6.80
2023-02-11T00:11:14.912Z,-6.80
2023-02-11T00:14:17.006Z,-6.80
2023-02-11T00:17:19.144Z,-6.90
2023-02-11T00:20:21.354Z,-6.90
2023-02-11T00:23:23.422Z,-7.00
2023-02-11T00:26:28.304Z,-7.00
2023-02-11T00:29:30.555Z,-7.10
2023-02-11T00:32:32.839Z,-7.10
2023-02-11T00:35:37.856Z,-7.10
2023-02-11T00:38:40.752Z,-7.10
2023-02-11T00:41:42.809Z,-7.10
2023-02-11T00:44:44.968Z,-7.10
2023-02-11T00:47:47.293Z,-7.10
2023-02-11T00:50:49.403Z,-7.10
2023-02-11T00:53:51.881Z,-7.10
2023-02-11T00:56:54.023Z,-7.20
2023-02-11T00:59:56.163Z,-7.20
2023-02-11T01:02:58.282Z,-7.30
2023-02-11T01:06:00.688Z,-7.40
2023-02-11T01:09:02.826Z,-7.40
2023-02-11T01:12:05.145Z,-7.40
2023-02-11T01:15:09.012Z,-7.40
2023-02-11T01:18:11.364Z,-7.40
2023-02-11T01:21:13.753Z,-7.40
2023-02-11T01:24:15.794Z,-7.40
2023-02-11T01:27:17.954Z,-7.40
2023-02-11T01:30:20.194Z,-7.40
2023-02-11T01:33:23.353Z,-7.50
2023-02-11T01:36:25.590Z,-7.40
2023-02-11T01:39:27.894Z,-7.50
2023-02-11T01:42:30.519Z,-7.50
2023-02-11T01:46:12.466Z,-7.40
2023-02-11T01:49:38.720Z,-7.40
2023-02-11T01:52:42.641Z,-7.40
2023-02-11T01:56:03.459Z,-7.50
2023-02-11T01:59:11.065Z,-7.50
2023-02-11T02:02:15.128Z,-7.60
2023-02-11T02:05:23.576Z,-7.60
2023-02-11T02:08:43.888Z,-7.60
2023-02-11T02:11:46.258Z,-7.60
2023-02-11T02:14:48.431Z,-7.70
2023-02-11T02:18:15.978Z,-7.70
2023-02-11T02:21:41.104Z,-7.70
2023-02-11T02:25:05.095Z,-7.70
2023-02-11T02:28:37.729Z,-7.70
2023-02-11T02:32:10.444Z,-7.70
2023-02-11T02:35:29.578Z,-7.70
2023-02-11T02:38:40.828Z,-7.70
2023-02-11T02:41:44.139Z,-7.70
2023-02-11T02:44:53.354Z,-7.60
2023-02-11T02:47:55.711Z,-7.60
2023-02-11T02:51:03.911Z,-7.60
2023-02-11T02:54:24.458Z,-7.60
2023-02-11T02:57:47.262Z,-7.70
2023-02-11T03:01:04.823Z,-7.60
2023-02-11T03:04:27.180Z,-7.60
2023-02-11T03:07:45.954Z,-7.60
2023-02-11T03:10:51.556Z,-7.60
2023-02-11T03:13:55.936Z,-7.80
2023-02-11T03:17:01.375Z,-7.80
2023-02-11T03:20:06.945Z,-7.90
2023-02-11T03:23:17.046Z,-7.90
2023-02-11T03:26:28.464Z,-7.80
2023-02-11T03:30:10.409Z,-7.90
2023-02-11T03:33:50.244Z,-7.90
2023-02-11T03:37:01.822Z,-7.90
2023-02-11T03:40:10.095Z,-7.90
2023-02-11T03:43:25.214Z,-8.00
2023-02-11T03:46:37.496Z,-7.90
2023-02-11T03:49:40.601Z,-8.00
2023-02-11T03:52:43.358Z,-8.00
2023-02-11T03:55:47.102Z,-8.00
2023-02-11T03:58:49.890Z,-8.00
2023-02-11T04:01:52.578Z,-8.00
2023-02-11T04:04:54.914Z,-8.00
2023-02-11T04:07:57.067Z,-8.00
2023-02-11T04:10:59.432Z,-8.00
2023-02-11T04:14:01.667Z,-8.00
2023-02-11T04:17:04.367Z,-8.00
2023-02-11T04:20:07.735Z,-8.00
2023-02-11T04:23:10.277Z,-8.10
2023-02-11T04:26:12.386Z,-8.10
2023-02-11T04:29:14.940Z,-8.10
2023-02-11T04:32:17.335Z,-8.00
2023-02-11T04:35:19.555Z,-7.90
2023-02-11T04:38:24.114Z,-7.80
2023-02-11T04:41:26.287Z,-7.70
2023-02-11T04:44:28.456Z,-7.70
2023-02-11T04:47:30.737Z,-7.60
2023-02-11T04:50:32.840Z,-7.50
2023-02-11T04:53:35.018Z,-7.50
2023-02-11T04:56:37.365Z,-7.40
2023-02-11T04:59:40.721Z,-7.30
2023-02-11T05:02:42.998Z,-7.30
2023-02-11T05:05:45.181Z,-7.30
2023-02-11T05:08:47.427Z,-7.30
2023-02-11T05:11:50.204Z,-7.30
2023-02-11T05:14:52.340Z,-7.30
2023-02-11T05:17:54.604Z,-7.30
2023-02-11T05:20:56.957Z,-7.20
2023-02-11T05:23:59.235Z,-7.20
2023-02-11T05:27:02.044Z,-7.20
2023-02-11T05:30:05.581Z,-7.20
2023-02-11T05:33:07.655Z,-7.10
2023-02-11T05:36:12.336Z,-7.10
2023-02-11T05:39:14.573Z,-7.20
2023-02-11T05:42:16.777Z,-7.20
2023-02-11T05:45:18.929Z,-7.10
2023-02-11T05:48:21.212Z,-7.10
2023-02-11T05:51:25.305Z,-7.10
2023-02-11T05:54:27.497Z,-7.20
2023-02-11T05:57:29.677Z,-7.20
2023-02-11T06:00:31.769Z,-7.20
2023-02-11T06:03:33.948Z,-7.20
2023-02-11T06:06:36.151Z,-7.30
2023-02-11T06:09:38.291Z,-7.30
2023-02-11T06:12:40.412Z,-7.30
2023-02-11T06:15:42.477Z,-7.30
2023-02-11T06:18:44.638Z,-7.30
2023-02-11T06:21:46.709Z,-7.30
2023-02-11T06:25:01.002Z,-7.20
2023-02-11T06:28:04.255Z,-7.20
2023-02-11T06:31:07.659Z,-7.20
2023-02-11T06:34:10.492Z,-7.20
2023-02-11T06:37:12.682Z,-7.10
2023-02-11T06:40:14.832Z,-7.10
2023-02-11T06:43:17.056Z,-7.00
2023-02-11T06:46:19.478Z,-7.00
2023-02-11T06:49:21.592Z,-7.00
2023-02-11T06:52:23.610Z,-6.90
2023-02-11T06:55:26.062Z,-6.90
2023-02-11T06:58:28.165Z,-6.80
2023-02-11T07:01:30.449Z,-6.80
2023-02-11T07:04:32.684Z,-6.70
2023-02-11T07:07:34.814Z,-6.70
2023-02-11T07:10:37.149Z,-6.50
2023-02-11T07:13:39.576Z,-6.40
2023-02-11T07:16:41.750Z,-6.30
2023-02-11T07:19:44.069Z,-6.20
2023-02-11T07:22:46.413Z,-6.00
2023-02-11T07:25:48.703Z,-5.90
2023-02-11T07:28:52.456Z,-5.80
2023-02-11T07:31:54.812Z,-5.70
2023-02-11T07:34:57.676Z,-5.50
2023-02-11T07:37:59.901Z,-5.30
2023-02-11T07:41:06.928Z,-5.10
2023-02-11T07:44:09.294Z,-4.80
2023-02-11T07:47:11.334Z,-4.50
2023-02-11T07:50:13.733Z,-4.30
2023-02-11T07:53:16.230Z,-4.00
2023-02-11T07:56:19.805Z,-3.70
2023-02-11T07:59:22.368Z,-3.50
2023-02-11T08:02:24.657Z,-3.40
2023-02-11T08:05:27.070Z,-3.10
2023-02-11T08:08:29.147Z,-2.60
2023-02-11T08:11:31.722Z,-2.30
2023-02-11T08:14:33.870Z,-2.10
2023-02-11T08:17:37.042Z,-1.80
2023-02-11T08:20:39.305Z,-1.50
2023-02-11T08:23:43.522Z,-1.20
2023-02-11T08:26:45.832Z,-0.80
2023-02-11T08:29:47.986Z,-0.40
2023-02-11T08:32:50.231Z,-0.20
2023-02-11T08:35:52.306Z,0.10
2023-02-11T08:39:08.603Z,0.20
2023-02-11T08:42:18.518Z,0.30
2023-02-11T08:45:20.646Z,0.40
2023-02-11T08:48:23.017Z,0.50
2023-02-11T08:51:27.929Z,0.60
2023-02-11T08:54:33.329Z,0.80
2023-02-11T08:57:35.492Z,0.90
2023-02-11T09:00:37.560Z,1.00
2023-02-11T09:03:40.436Z,1.00
2023-02-11T09:06:42.612Z,1.00
2023-02-11T09:09:44.671Z,1.10
2023-02-11T09:12:46.837Z,1.20
2023-02-11T09:15:49.002Z,1.20
2023-02-11T09:18:52.118Z,1.40
2023-02-11T09:21:54.335Z,1.50
2023-02-11T09:24:56.809Z,1.50
2023-02-11T09:27:58.874Z,1.60
2023-02-11T09:31:06.760Z,1.60
2023-02-11T09:34:11.128Z,1.70
2023-02-11T09:37:13.254Z,1.60
2023-02-11T09:40:16.350Z,1.70
2023-02-11T09:43:22.368Z,1.80
2023-02-11T09:46:27.320Z,2.00
2023-02-11T09:49:48.418Z,2.40
2023-02-11T09:52:59.948Z,2.70
2023-02-11T09:56:10.586Z,3.00
2023-02-11T09:59:17.668Z,2.70
2023-02-11T10:02:49.487Z,2.80
2023-02-11T10:05:51.457Z,3.20
2023-02-11T10:09:04.798Z,3.70
2023-02-11T10:12:16.191Z,4.00
2023-02-11T10:15:24.193Z,4.20
2023-02-11T10:18:35.116Z,4.00
2023-02-11T10:22:03.896Z,3.80
2023-02-11T10:25:25.709Z,3.50
2023-02-11T10:28:34.030Z,3.60
2023-02-11T10:31:39.943Z,3.70
2023-02-11T10:34:42.688Z,3.80
2023-02-11T10:37:45.327Z,3.80
2023-02-11T10:40:47.457Z,4.00
2023-02-11T10:43:50.519Z,4.10
2023-02-11T10:46:54.530Z,4.30
2023-02-11T10:50:03.323Z,4.20
2023-02-11T10:53:21.050Z,4.40
2023-02-11T10:56:27.354Z,4.10
2023-02-11T10:59:40.391Z,4.10
2023-02-11T11:02:44.594Z,4.30
2023-02-11T11:05:51.589Z,4.40
2023-02-11T11:08:53.684Z,4.30
2023-02-11T11:11:55.795Z,4.50
2023-02-11T11:15:13.673Z,4.40
2023-02-11T11:18:23.685Z,4.30
2023-02-11T11:21:34.597Z,4.20
2023-02-11T11:24:57.128Z,4.00
2023-02-11T11:28:01.129Z,3.80
2023-02-11T11:31:03.721Z,3.80
2023-02-11T11:34:42.121Z,3.80
2023-02-11T11:37:45.785Z,4.00
2023-02-11T11:41:18.082Z,4.30
2023-02-11T11:44:22.978Z,4.30
2023-02-11T11:47:43.696Z,4.30
2023-02-11T11:51:12.734Z,4.30
2023-02-11T11:54:19.605Z,4.20
2023-02-11T11:57:28.743Z,4.20
2023-02-11T12:00:35.526Z,4.60
2023-02-11T12:04:08.662Z,5.10
2023-02-11T12:07:25.799Z,5.60
2023-02-11T12:10:39.397Z,5.70
2023-02-11T12:14:08.120Z,6.10
2023-02-11T12:17:28.529Z,6.10
2023-02-11T12:20:37.005Z,5.70
2023-02-11T12:23:53.404Z,5.40
2023-02-11T12:26:58.701Z,6.00
2023-02-11T12:30:23.108Z,5.70
2023-02-11T12:33:54.883Z,5.30
2023-02-11T12:37:02.824Z,5.40
2023-02-11T12:40:34.777Z,5.50
2023-02-11T12:43:39.636Z,5.40
2023-02-11T12:47:11.913Z,5.50
2023-02-11T12:50:26.448Z,5.30
2023-02-11T12:53:49.645Z,5.20
2023-02-11T12:56:51.888Z,5.20
2023-02-11T13:00:00.485Z,5.30
2023-02-11T13:03:43.095Z,5.20
2023-02-11T13:06:51.903Z,5.50
2023-02-11T13:10:28.325Z,6.20
2023-02-11T13:13:48.736Z,6.70
2023-02-11T13:16:51.669Z,7.00
2023-02-11T13:20:01.135Z,7.40
2023-02-11T13:23:27.819Z,7.90
2023-02-11T13:26:50.611Z,7.70
2023-02-11T13:30:24.373Z,7.20
2023-02-11T13:33:37.644Z,6.60
2023-02-11T13:36:40.217Z,6.30
2023-02-11T13:39:42.813Z,6.10
2023-02-11T13:42:57.632Z,6.30
2023-02-11T13:46:11.679Z,6.70
2023-02-11T13:49:42.221Z,6.80
2023-02-11T13:52:44.978Z,7.30
2023-02-11T13:55:53.177Z,8.10
2023-02-11T13:58:55.915Z,7.60
2023-02-11T14:02:24.623Z,6.80
2023-02-11T14:05:48.968Z,6.50
2023-02-11T14:09:10.151Z,6.30
2023-02-11T14:12:32.120Z,6.10
2023-02-11T14:15:42.565Z,5.90
2023-02-11T14:18:45.050Z,5.80
2023-02-11T14:21:48.008Z,5.90
2023-02-11T14:25:02.219Z,6.00
2023-02-11T14:28:26.864Z,6.00
2023-02-11T14:31:44.257Z,5.90
2023-02-11T14:35:15.736Z,5.70
2023-02-11T14:38:48.626Z,5.60
2023-02-11T14:41:51.553Z,5.60
2023-02-11T14:44:59.491Z,5.50
2023-02-11T14:48:13.835Z,5.40
2023-02-11T14:51:27.079Z,5.40
2023-02-11T14:54:31.402Z,5.30
2023-02-11T14:57:35.638Z,5.20
2023-02-11T15:00:52.437Z,5.20
2023-02-11T15:03:59.877Z,5.10
2023-02-11T15:07:08.601Z,5.00
2023-02-11T15:10:27.831Z,4.90
2023-02-11T15:13:33.175Z,5.00
2023-02-11T15:16:44.707Z,4.90
2023-02-11T15:19:51.231Z,4.90
2023-02-11T15:23:03.743Z,4.90
2023-02-11T15:26:14.824Z,4.80
2023-02-11T15:29:17.743Z,4.70
2023-02-11T15:32:25.199Z,4.70
2023-02-11T15:35:37.425Z,4.70
2023-02-11T15:38:41.251Z,4.60
2023-02-11T15:41:45.007Z,4.50
2023-02-11T15:44:56.763Z,4.40
2023-02-11T15:48:09.832Z,4.30
2023-02-11T15:51:35.497Z,4.20
2023-02-11T15:54:38.612Z,4.20
2023-02-11T15:57:54.840Z,4.10
2023-02-11T16:01:00.568Z,4.10
2023-02-11T16:04:05.666Z,4.10
2023-02-11T16:07:39.613Z,4.10
2023-02-11T16:10:58.817Z,4.00
2023-02-11T16:14:19.038Z,3.90
2023-02-11T16:17:26.832Z,3.80
2023-02-11T16:20:30.143Z,3.70
2023-02-11T16:23:38.561Z,3.60
2023-02-11T16:26:47.529Z,3.70
2023-02-11T16:29:52.004Z,3.70
2023-02-11T16:32:55.378Z,3.70
2023-02-11T16:36:02.596Z,3.70
2023-02-11T16:39:05.921Z,3.70
2023-02-11T16:42:10.950Z,3.70
2023-02-11T16:45:16.170Z,3.60
2023-02-11T16:48:21.123Z,3.40
2023-02-11T16:51:25.004Z,3.40
2023-02-11T16:54:30.028Z,3.40
2023-02-11T16:57:33.720Z,3.40
2023-02-11T17:00:37.215Z,3.40
2023-02-11T17:03:44.081Z,3.40
2023-02-11T17:06:48.436Z,3.40
2023-02-11T17:09:52.589Z,3.30
2023-02-11T17:12:55.788Z,3.20
2023-02-11T17:15:59.477Z,3.00
2023-02-11T17:19:05.239Z,2.90
2023-02-11T17:22:10.773Z,2.90
2023-02-11T17:25:18.491Z,3.00
2023-02-11T17:28:23.180Z,3.00
2023-02-11T17:31:26.775Z,3.00
2023-02-11T17:34:30.235Z,3.00
2023-02-11T17:37:33.940Z,3.00
2023-02-11T17:40:38.628Z,3.00
2023-02-11T17:43:42.274Z,3.00
2023-02-11T17:46:46.513Z,3.00
2023-02-11T17:49:50.260Z,2.90
2023-02-11T17:52:54.943Z,2.80
2023-02-11T17:55:59.283Z,2.80
2023-02-11T17:59:03.555Z,2.80
2023-02-11T18:02:07.539Z,2.80
2023-02-11T18:05:11.007Z,2.80
2023-02-11T18:08:14.155Z,2.60
2023-02-11T18:11:17.674Z,2.40
2023-02-11T18:14:23.421Z,2.50
2023-02-11T18:17:28.203Z,2.50
2023-02-11T18:20:35.166Z,2.30
2023-02-11T18:23:38.551Z,2.10
2023-02-11T18:26:42.149Z,2.00
2023-02-11T18:29:46.089Z,2.00
2023-02-11T18:32:55.384Z,2.00
2023-02-11T18:36:00.177Z,2.20
2023-02-11T18:39:07.462Z,2.20
2023-02-11T18:42:10.976Z,2.10
2023-02-11T18:45:15.986Z,1.90
2023-02-11T18:48:20.885Z,1.70
2023-02-11T18:51:24.770Z,1.70
2023-02-11T18:54:28.134Z,1.60
2023-02-11T19:00:51.270Z,1.60
2023-02-11T19:03:58.452Z,1.50
2023-02-11T19:07:04.355Z,1.30
2023-02-11T19:10:08.367Z,1.10
2023-02-11T19:13:11.967Z,1.00
2023-02-11T19:16:20.250Z,0.90
2023-02-11T19:19:28.056Z,0.80
2023-02-11T19:22:32.719Z,0.60
2023-02-11T19:25:38.724Z,0.60
2023-02-11T19:28:44.657Z,0.50
2023-02-11T19:31:48.085Z,0.50
2023-02-11T19:34:52.739Z,0.50
2023-02-11T19:37:55.341Z,0.50
2023-02-11T19:40:59.297Z,0.40
2023-02-11T19:44:03.379Z,0.30
2023-02-11T19:47:07.523Z,0.20
2023-02-11T19:50:12.028Z,0.20
2023-02-11T19:53:15.379Z,0.10
2023-02-11T19:56:21.987Z,0.00
2023-02-11T19:59:25.809Z,-0.10
2023-02-11T20:02:30.791Z,-0.10
2023-02-11T20:05:40.091Z,-0.10
2023-02-11T20:08:44.760Z,-0.10
2023-02-11T20:11:49.234Z,-0.10
2023-02-11T20:14:52.417Z,-0.20
2023-02-11T20:17:57.437Z,-0.30
2023-02-11T20:21:06.509Z,-0.40
2023-02-11T20:24:10.106Z,-0.40
2023-02-11T20:27:14.197Z,-0.50
2023-02-11T20:30:22.566Z,-0.50
2023-02-11T20:33:26.653Z,-0.50
2023-02-11T20:36:39.312Z,-0.50
2023-02-11T20:39:45.608Z,-0.50
2023-02-11T20:42:53.225Z,-0.40
2023-02-11T20:46:04.223Z,-0.50
2023-02-11T20:49:09.206Z,-0.60
2023-02-11T20:52:14.455Z,-0.60
2023-02-11T20:55:17.891Z,-0.70
2023-02-11T20:58:24.796Z,-0.70
2023-02-11T21:01:34.498Z,-0.70
2023-02-11T21:04:42.509Z,-0.80
2023-02-11T21:07:45.964Z,-0.80
2023-02-11T21:10:49.697Z,-0.90
2023-02-11T21:13:53.638Z,-1.00
2023-02-11T21:17:00.506Z,-1.00
2023-02-11T21:20:04.321Z,-1.00
2023-02-11T21:23:08.529Z,-1.00
2023-02-11T21:26:12.452Z,-1.00
2023-02-11T21:29:16.305Z,-0.90
2023-02-11T21:32:20.017Z,-0.90
2023-02-11T21:35:23.661Z,-0.80
2023-02-11T21:38:30.803Z,-0.80
2023-02-11T21:41:35.381Z,-0.80
2023-02-11T21:44:38.241Z,-0.90
2023-02-11T21:47:40.831Z,-0.90
2023-02-11T21:50:46.294Z,-0.90
2023-02-11T21:53:58.564Z,-0.90
2023-02-11T21:57:03.589Z,-1.00
2023-02-11T22:00:07.877Z,-1.00
2023-02-11T22:03:12.568Z,-1.00
2023-02-11T22:06:19.330Z,-1.10
2023-02-11T22:09:22.143Z,-1.10
2023-02-11T22:12:25.268Z,-1.20
2023-02-11T22:15:27.962Z,-1.20
2023-02-11T22:18:30.628Z,-1.20
2023-02-11T22:21:33.196Z,-1.30
2023-02-11T22:24:38.965Z,-1.30
2023-02-11T22:27:41.449Z,-1.30
2023-02-11T22:30:43.808Z,-1.30
2023-02-11T22:33:46.445Z,-1.40
2023-02-11T22:36:53.633Z,-1.40
2023-02-11T22:39:55.764Z,-1.40
2023-02-11T22:42:57.986Z,-1.40
2023-02-11T22:46:01.298Z,-1.40
2023-02-11T22:49:04.974Z,-1.40
2023-02-11T22:52:07.130Z,-1.50
2023-02-11T22:55:09.776Z,-1.50
2023-02-11T22:58:11.947Z,-1.60
2023-02-11T23:01:14.894Z,-1.60
2023-02-11T23:04:19.205Z,-1.60
2023-02-11T23:07:21.420Z,-1.50
2023-02-11T23:10:23.834Z,-1.50
2023-02-11T23:13:25.884Z,-1.50
2023-02-11T23:16:34.092Z,-1.50
2023-02-11T23:19:36.549Z,-1.50
2023-02-11T23:22:38.669Z,-1.50
2023-02-11T23:25:44.264Z,-1.40
2023-02-11T23:28:46.872Z,-1.50
2023-02-11T23:31:50.128Z,-1.40
2023-02-11T23:34:52.824Z,-1.40
2023-02-11T23:37:55.113Z,-1.30
2023-02-11T23:40:57.284Z,-1.20
2023-02-11T23:43:59.670Z,-1.20
2023-02-11T23:47:01.769Z,-1.10
2023-02-11T23:50:04.536Z,-1.00
2023-02-11T23:53:06.777Z,-0.90
2023-02-11T23:56:16.137Z,-0.80
2023-02-11T23:59:18.322Z,-0.80
